Time;durP1;ratioP1;P1;durP2;ratioP2;P2;SDS_P1;SDS_P2;PMS_P1;PMS_P2;Temp;Humidity;BMP_temperature;BMP_pressure;BME280_temperature;BME280_humidity;BME280_pressure;Samples;Min_cycle;Max_cycle;Signal;HPM_P1;HPM_P2
2022/07/02 00:01:00;;;;;;;21.15;16.70;;;12.10;99.90;;;;;;5035185;28;20509;-68
2022/07/02 00:03:39;;;;;;;19.75;15.90;;;12.20;99.90;;;;;;5035345;28;20059;-68
2022/07/02 00:06:09;;;;;;;16.95;14.10;;;12.20;99.90;;;;;;5034983;28;20032;-68
2022/07/02 00:08:37;;;;;;;17.15;14.77;;;12.20;99.90;;;;;;5033465;28;20032;-68
2022/07/02 00:11:04;;;;;;;19.63;15.38;;;12.20;99.90;;;;;;5128734;22;20017;-82
2022/07/02 00:13:32;;;;;;;17.25;14.82;;;12.30;99.90;;;;;;5040223;22;20040;-82
2022/07/02 00:16:01;;;;;;;23.05;15.43;;;12.30;99.90;;;;;;5030371;22;20519;-82
2022/07/02 00:18:30;;;;;;;20.65;15.77;;;12.30;99.90;;;;;;5025775;22;20076;-82
2022/07/02 00:20:57;;;;;;;21.25;17.02;;;12.40;99.90;;;;;;5009422;28;20488;-81
2022/07/02 00:26:01;;;;;;;19.38;17.27;;;12.60;99.90;;;;;;5033697;28;20060;-69
2022/07/02 00:28:31;;;;;;;28.45;18.92;;;12.60;99.90;;;;;;5033212;28;20029;-69
2022/07/02 00:30:58;;;;;;;24.38;18.48;;;12.60;99.90;;;;;;5034343;28;20371;-69
2022/07/02 00:33:26;;;;;;;27.20;18.50;;;12.70;99.90;;;;;;5032380;28;20722;-69
2022/07/02 00:35:53;;;;;;;22.35;16.35;;;12.80;99.90;;;;;;5026430;28;20028;-69
2022/07/02 00:38:21;;;;;;;22.52;17.35;;;12.90;99.90;;;;;;5014387;28;20073;-70
2022/07/02 00:40:49;;;;;;;24.67;17.35;;;13.10;99.90;;;;;;5014356;28;20026;-69
2022/07/02 00:43:18;;;;;;;22.42;16.95;;;13.10;99.90;;;;;;5024813;28;20046;-69
2022/07/02 00:45:45;;;;;;;22.77;18.67;;;13.30;99.90;;;;;;5053999;22;20084;-83
2022/07/02 00:48:16;;;;;;;24.27;19.27;;;13.40;99.90;;;;;;5034749;22;20038;-84
2022/07/02 00:50:44;;;;;;;24.27;20.13;;;13.40;99.90;;;;;;5016421;28;20026;-83
2022/07/02 00:53:11;;;;;;;29.30;21.02;;;13.40;99.90;;;;;;5024998;28;20024;-83
2022/07/02 00:55:38;;;;;;;27.48;19.30;;;13.40;99.90;;;;;;5033905;28;20033;-83
2022/07/02 00:58:05;;;;;;;24.55;18.70;;;13.50;99.90;;;;;;5031739;28;20025;-84
2022/07/02 01:00:33;;;;;;;29.70;20.30;;;13.50;99.90;;;;;;5034129;28;20029;-84
2022/07/02 01:05:26;;;;;;;26.02;20.40;;;13.40;99.90;;;;;;5047727;22;20539;-84
2022/07/02 01:10:52;;;;;;;31.50;20.52;;;13.50;99.90;;;;;;5034108;28;20044;-84
2022/07/02 01:13:20;;;;;;;27.83;21.25;;;13.50;99.90;;;;;;5031702;28;20053;-84
2022/07/02 01:15:47;;;;;;;24.27;19.05;;;13.50;99.90;;;;;;5033074;28;20548;-85
2022/07/02 01:18:17;;;;;;;25.92;19.13;;;13.60;99.90;;;;;;5023350;28;20113;-84
2022/07/02 01:20:45;;;;;;;32.80;20.73;;;13.60;99.90;;;;;;5031130;28;20033;-84
2022/07/02 01:23:13;;;;;;;29.25;19.52;;;13.70;99.90;;;;;;5024457;28;20138;-84
2022/07/02 01:25:40;;;;;;;30.52;22.15;;;13.70;99.90;;;;;;5031659;28;20033;-84
2022/07/02 01:28:08;;;;;;;24.23;19.55;;;13.70;99.90;;;;;;5030400;28;20021;-83
2022/07/02 01:30:35;;;;;;;24.13;18.23;;;13.80;99.90;;;;;;5020839;28;20057;-83
2022/07/02 01:33:02;;;;;;;25.42;19.15;;;13.70;99.90;;;;;;5020815;28;20044;-82
2022/07/02 01:35:30;;;;;;;27.58;19.17;;;13.70;99.90;;;;;;5031621;28;20052;-83
2022/07/02 01:37:57;;;;;;;27.85;18.60;;;13.70;99.90;;;;;;5046832;22;20071;-83
2022/07/02 01:40:25;;;;;;;29.02;18.88;;;13.70;99.90;;;;;;5031734;28;20033;-83
2022/07/02 01:42:52;;;;;;;33.72;20.80;;;13.70;99.90;;;;;;5021765;28;20026;-82
2022/07/02 01:45:19;;;;;;;29.85;21.13;;;13.80;99.90;;;;;;5015208;28;20526;-83
2022/07/02 01:47:47;;;;;;;28.65;21.63;;;13.80;99.90;;;;;;5020511;28;20072;-82
2022/07/02 01:50:14;;;;;;;31.67;20.75;;;13.90;99.90;;;;;;5031372;28;20033;-83
2022/07/02 01:52:42;;;;;;;30.00;21.20;;;13.90;99.90;;;;;;5029075;28;20068;-83
2022/07/02 01:55:09;;;;;;;29.45;22.33;;;14.00;99.90;;;;;;5016687;28;20021;-85
2022/07/02 01:57:37;;;;;;;26.98;22.92;;;14.00;99.90;;;;;;5030640;28;20021;-83
2022/07/02 02:00:10;;;;;;;28.75;21.33;;;14.00;99.90;;;;;;5012720;28;20075;-83
2022/07/02 02:02:38;;;;;;;25.30;19.02;;;14.00;99.90;;;;;;5012296;28;20025;-83
2022/07/02 02:05:06;;;;;;;23.83;18.25;;;14.10;99.90;;;;;;5031998;28;20061;-83
2022/07/02 02:07:33;;;;;;;27.92;20.48;;;14.10;99.90;;;;;;5031723;28;20055;-83
2022/07/02 02:10:01;;;;;;;32.53;22.48;;;14.20;99.90;;;;;;5030428;28;20116;-83
2022/07/02 02:12:28;;;;;;;29.75;21.23;;;14.30;99.90;;;;;;5032643;28;20068;-83
2022/07/02 02:14:55;;;;;;;42.97;24.83;;;14.40;99.90;;;;;;5016379;28;20526;-83
2022/07/02 02:17:22;;;;;;;37.80;21.90;;;14.30;99.90;;;;;;5012582;28;20192;-83
2022/07/02 02:19:50;;;;;;;45.13;23.20;;;14.30;99.90;;;;;;5019754;28;20029;-83
2022/07/02 02:22:17;;;;;;;40.45;20.90;;;14.10;99.90;;;;;;5029800;28;20054;-83
2022/07/02 02:24:44;;;;;;;42.35;24.60;;;14.20;99.90;;;;;;5018084;28;20025;-83
2022/07/02 02:27:11;;;;;;;36.90;23.92;;;14.20;99.90;;;;;;5032567;28;20112;-83
2022/07/02 02:29:39;;;;;;;43.88;23.50;;;14.20;99.90;;;;;;5014371;28;20100;-83
2022/07/02 02:32:07;;;;;;;35.45;23.55;;;14.30;99.90;;;;;;5011436;28;20392;-83
2022/07/02 02:34:34;;;;;;;38.97;23.02;;;14.20;99.90;;;;;;5012682;28;20025;-83
2022/07/02 02:37:01;;;;;;;34.55;20.83;;;14.30;99.90;;;;;;5010765;28;20132;-83
2022/07/02 02:39:29;;;;;;;28.77;20.02;;;14.30;99.90;;;;;;5030965;22;20076;-82
2022/07/02 02:41:56;;;;;;;35.45;21.95;;;14.30;99.90;;;;;;5037384;22;20048;-82
2022/07/02 02:44:23;;;;;;;24.75;17.38;;;14.30;99.90;;;;;;5024768;28;20049;-81
2022/07/02 02:46:50;;;;;;;24.70;17.00;;;14.30;99.90;;;;;;5037830;23;20078;-82
2022/07/02 02:49:18;;;;;;;18.33;14.90;;;14.30;99.90;;;;;;5003467;28;20681;-82
2022/07/02 02:51:45;;;;;;;18.85;12.88;;;14.20;99.90;;;;;;4997386;28;20538;-84
2022/07/02 02:54:12;;;;;;;20.65;14.05;;;14.20;99.90;;;;;;5004894;22;20038;-84
2022/07/02 02:56:40;;;;;;;18.23;11.38;;;14.20;99.90;;;;;;5007158;28;20391;-81
2022/07/02 02:59:07;;;;;;;27.10;14.95;;;14.10;99.90;;;;;;4997049;28;20026;-80
2022/07/02 03:01:34;;;;;;;18.50;13.48;;;14.10;99.90;;;;;;5004190;28;20089;-82
2022/07/02 03:04:02;;;;;;;20.60;14.57;;;14.20;99.90;;;;;;5002719;28;20022;-82
2022/07/02 03:06:29;;;;;;;21.08;13.20;;;14.20;99.90;;;;;;5001718;28;20029;-83
2022/07/02 03:08:56;;;;;;;19.08;12.85;;;14.20;99.90;;;;;;5003751;28;20122;-83
2022/07/02 03:11:23;;;;;;;19.13;11.02;;;14.10;99.90;;;;;;5013582;22;20136;-86
2022/07/02 03:13:53;;;;;;;14.43;9.85;;;14.20;99.90;;;;;;5028064;28;20110;-82
2022/07/02 03:16:21;;;;;;;11.48;8.00;;;14.10;99.90;;;;;;5027090;28;20044;-85
2022/07/02 03:18:51;;;;;;;21.77;8.18;;;14.10;99.90;;;;;;5005258;28;20041;-82
2022/07/02 03:21:19;;;;;;;11.88;6.75;;;14.10;99.90;;;;;;5001483;28;20057;-82
2022/07/02 03:23:46;;;;;;;10.95;5.95;;;14.20;99.90;;;;;;5003960;28;20034;-84
2022/07/02 03:26:14;;;;;;;6.70;2.83;;;14.10;99.90;;;;;;5010069;28;20026;-83
2022/07/02 03:28:44;;;;;;;6.80;2.75;;;14.10;99.90;;;;;;5005566;28;20431;-84
2022/07/02 03:31:11;;;;;;;9.32;3.97;;;14.10;99.90;;;;;;4998419;28;20454;-79
2022/07/02 03:33:39;;;;;;;10.45;4.50;;;14.10;99.90;;;;;;5008312;28;20033;-84
2022/07/02 03:36:07;;;;;;;5.72;2.80;;;14.10;99.90;;;;;;5005229;28;20029;-82
2022/07/02 03:38:34;;;;;;;12.73;4.25;;;14.10;99.90;;;;;;4996517;28;20391;-81
2022/07/02 03:41:02;;;;;;;10.68;2.85;;;14.10;99.90;;;;;;5002215;28;20109;-85
2022/07/02 03:43:29;;;;;;;15.93;2.75;;;14.10;99.90;;;;;;5003779;28;20095;-81
2022/07/02 03:45:56;;;;;;;23.50;2.88;;;14.10;99.90;;;;;;5036814;22;20116;-81
2022/07/02 03:48:24;;;;;;;16.95;2.72;;;14.10;99.90;;;;;;5013866;28;20022;-85
2022/07/02 03:50:51;;;;;;;25.13;3.35;;;14.10;99.90;;;;;;4998968;28;20030;-78
2022/07/02 03:53:21;;;;;;;13.65;2.03;;;14.10;99.90;;;;;;5001132;28;20053;-81
2022/07/02 03:55:48;;;;;;;16.42;2.72;;;14.10;99.90;;;;;;5006491;28;20026;-82
2022/07/02 03:58:16;;;;;;;17.65;1.65;;;14.20;99.90;;;;;;5006277;28;20014;-82
2022/07/02 04:00:43;;;;;;;14.48;2.63;;;14.20;99.90;;;;;;5003992;28;20037;-82
2022/07/02 04:03:10;;;;;;;24.00;2.95;;;14.20;99.90;;;;;;5012723;28;20022;-83
2022/07/02 04:05:37;;;;;;;15.38;2.53;;;14.20;99.90;;;;;;5014244;28;20030;-80
2022/07/02 04:08:05;;;;;;;28.67;4.13;;;14.30;99.90;;;;;;4997620;28;20030;-84
2022/07/02 04:10:32;;;;;;;18.17;2.53;;;14.20;99.90;;;;;;5012763;28;20030;-82
2022/07/02 04:12:59;;;;;;;22.02;2.22;;;14.20;99.90;;;;;;5012554;28;20105;-83
2022/07/02 04:15:27;;;;;;;28.85;3.53;;;14.20;99.90;;;;;;5013808;28;20038;-83
2022/07/02 04:17:54;;;;;;;21.45;3.35;;;14.20;99.90;;;;;;4994073;28;20079;-82
2022/07/02 04:20:21;;;;;;;24.73;3.20;;;14.30;99.90;;;;;;5004316;28;20095;-80
2022/07/02 04:22:49;;;;;;;23.25;3.33;;;14.30;99.90;;;;;;5008310;28;20033;-79
2022/07/02 04:25:16;;;;;;;19.85;2.85;;;14.30;99.90;;;;;;5012781;28;20017;-81
2022/07/02 04:27:46;;;;;;;22.15;2.88;;;14.30;99.90;;;;;;5008760;28;20080;-81
2022/07/02 04:30:14;;;;;;;17.15;2.30;;;14.40;99.90;;;;;;5012722;28;20022;-80
2022/07/02 04:32:41;;;;;;;22.70;3.60;;;14.40;99.90;;;;;;5006168;28;20038;-79
2022/07/02 04:35:09;;;;;;;18.60;3.72;;;14.40;99.90;;;;;;5002625;28;20026;-82
2022/07/02 04:37:36;;;;;;;19.92;2.58;;;14.40;99.90;;;;;;5006610;28;20148;-82
2022/07/02 04:40:04;;;;;;;15.57;2.05;;;14.40;99.90;;;;;;5006267;28;20531;-81
2022/07/02 04:42:31;;;;;;;25.10;2.92;;;14.40;99.90;;;;;;5004854;28;20086;-81
2022/07/02 04:47:26;;;;;;;27.30;2.60;;;14.30;99.90;;;;;;5025267;28;20065;-71
2022/07/02 04:49:53;;;;;;;31.70;4.55;;;14.40;99.90;;;;;;5010619;28;20038;-70
2022/07/02 04:52:21;;;;;;;22.90;3.17;;;14.40;99.90;;;;;;5011409;28;20089;-70
2022/07/02 04:54:48;;;;;;;31.98;3.80;;;14.40;99.90;;;;;;5018595;28;20026;-70
2022/07/02 04:57:15;;;;;;;19.67;2.90;;;14.50;99.90;;;;;;5007744;28;20026;-70
2022/07/02 04:59:46;;;;;;;21.65;3.83;;;14.50;99.90;;;;;;5009940;28;20030;-71
2022/07/02 05:02:13;;;;;;;27.35;3.33;;;14.50;99.90;;;;;;5009653;28;20109;-70
2022/07/02 05:04:41;;;;;;;30.00;4.40;;;14.60;99.90;;;;;;5008772;28;20032;-70
2022/07/02 05:07:08;;;;;;;35.47;4.20;;;14.60;99.90;;;;;;5019913;28;20466;-70
2022/07/02 05:09:35;;;;;;;21.98;3.03;;;14.60;99.90;;;;;;5022740;28;20030;-71
2022/07/02 05:12:03;;;;;;;28.70;4.07;;;14.60;99.90;;;;;;5030351;28;20490;-70
2022/07/02 05:14:30;;;;;;;25.83;4.63;;;14.70;99.90;;;;;;5010951;28;20041;-70
2022/07/02 05:16:57;;;;;;;24.48;2.53;;;14.70;99.90;;;;;;5018744;28;20036;-70
2022/07/02 05:19:25;;;;;;;33.03;3.15;;;14.70;99.90;;;;;;5007592;28;20034;-70
2022/07/02 05:21:52;;;;;;;22.73;2.92;;;14.80;99.90;;;;;;5011853;28;20030;-70
2022/07/02 05:24:19;;;;;;;28.05;3.55;;;14.70;99.90;;;;;;5019824;28;20037;-70
2022/07/02 05:26:47;;;;;;;20.73;1.52;;;14.70;99.90;;;;;;5019931;28;20048;-70
2022/07/02 05:29:14;;;;;;;18.98;1.45;;;14.60;99.90;;;;;;5022597;28;20026;-70
2022/07/02 05:31:41;;;;;;;16.45;3.15;;;14.60;99.90;;;;;;5010178;28;20033;-70
2022/07/02 05:34:08;;;;;;;30.33;4.88;;;14.70;99.90;;;;;;5016473;28;20033;-70
2022/07/02 05:36:36;;;;;;;18.65;3.38;;;14.70;99.90;;;;;;5010762;28;20041;-69
2022/07/02 05:39:03;;;;;;;26.67;3.35;;;14.70;99.90;;;;;;5024762;28;20090;-69
2022/07/02 05:41:30;;;;;;;17.15;2.72;;;14.80;99.90;;;;;;5028503;28;20026;-70
2022/07/02 05:43:58;;;;;;;19.05;2.38;;;14.80;99.90;;;;;;5011272;28;20030;-70
2022/07/02 05:46:25;;;;;;;13.50;2.05;;;14.70;99.90;;;;;;5017864;28;20046;-70
2022/07/02 05:48:53;;;;;;;21.48;2.67;;;14.70;99.90;;;;;;5005615;28;20033;-70
2022/07/02 05:51:20;;;;;;;28.42;3.53;;;14.70;99.90;;;;;;5036932;28;20030;-70
2022/07/02 05:53:47;;;;;;;20.70;2.80;;;14.80;99.90;;;;;;5021008;28;20177;-70
2022/07/02 05:56:14;;;;;;;23.13;2.88;;;14.80;99.90;;;;;;5020646;28;20045;-70
2022/07/02 05:58:42;;;;;;;21.83;2.20;;;14.80;99.90;;;;;;5010526;28;20540;-70
2022/07/02 06:01:09;;;;;;;27.13;3.05;;;14.80;99.90;;;;;;5004572;28;20034;-69
2022/07/02 06:03:36;;;;;;;20.45;2.25;;;14.80;99.90;;;;;;5003952;28;20022;-70
2022/07/02 06:08:49;;;;;;;23.08;2.88;;;14.80;99.90;;;;;;5007056;28;20041;-69
2022/07/02 06:11:16;;;;;;;29.13;4.13;;;14.80;99.90;;;;;;5011486;28;20029;-70
2022/07/02 06:13:43;;;;;;;22.15;2.50;;;14.80;99.90;;;;;;5011431;28;20045;-69
2022/07/02 06:16:11;;;;;;;24.05;4.70;;;14.70;99.90;;;;;;5005095;28;20034;-69
2022/07/02 06:18:38;;;;;;;23.83;3.35;;;14.70;99.90;;;;;;5003319;28;20064;-69
2022/07/02 06:21:05;;;;;;;24.45;2.58;;;14.70;99.90;;;;;;5008091;28;20022;-71
2022/07/02 06:23:33;;;;;;;18.63;2.92;;;14.80;99.90;;;;;;5000608;28;20478;-70
2022/07/02 06:26:00;;;;;;;23.13;3.38;;;14.80;99.90;;;;;;5007323;28;20083;-70
2022/07/02 06:28:27;;;;;;;23.58;4.07;;;14.80;99.90;;;;;;5004247;28;20033;-69
2022/07/02 06:30:54;;;;;;;15.20;2.58;;;14.80;99.90;;;;;;5000874;28;20038;-70
2022/07/02 06:33:22;;;;;;;17.52;2.33;;;14.80;99.90;;;;;;5002538;28;20070;-69
2022/07/02 06:35:49;;;;;;;19.15;2.97;;;14.90;99.90;;;;;;5001955;28;20033;-70
2022/07/02 06:38:16;;;;;;;30.80;3.55;;;14.90;99.90;;;;;;5006093;28;20025;-70
2022/07/02 06:40:44;;;;;;;23.95;3.65;;;14.90;99.90;;;;;;5001242;28;20392;-70
2022/07/02 06:43:11;;;;;;;16.92;2.45;;;14.90;99.90;;;;;;4999853;28;20026;-70
2022/07/02 06:45:38;;;;;;;21.00;2.08;;;14.90;99.90;;;;;;5005202;28;20408;-70
2022/07/02 06:48:06;;;;;;;18.27;2.55;;;14.90;99.90;;;;;;4996677;28;20101;-70
2022/07/02 06:50:33;;;;;;;13.80;2.00;;;14.90;99.90;;;;;;5004707;28;20026;-71
2022/07/02 06:53:00;;;;;;;26.13;2.40;;;14.90;99.90;;;;;;5000733;28;20482;-71
2022/07/02 06:55:27;;;;;;;27.27;3.88;;;14.90;99.90;;;;;;5001948;28;20059;-71
2022/07/02 06:57:54;;;;;;;21.33;2.67;;;14.90;99.90;;;;;;4995340;28;20026;-71
2022/07/02 07:00:23;;;;;;;21.60;2.60;;;14.90;99.90;;;;;;5005167;28;20038;-71
2022/07/02 07:02:51;;;;;;;23.98;3.42;;;14.90;99.90;;;;;;4998849;28;20038;-71
2022/07/02 07:05:18;;;;;;;23.30;2.92;;;14.80;99.90;;;;;;5003834;28;20049;-72
2022/07/02 07:07:45;;;;;;;26.50;3.33;;;14.90;99.90;;;;;;5002964;28;20113;-72
2022/07/02 07:10:13;;;;;;;33.20;3.83;;;14.90;99.90;;;;;;5005440;28;20045;-72
2022/07/02 07:12:41;;;;;;;27.75;3.80;;;14.90;99.90;;;;;;5007540;28;20022;-72
2022/07/02 07:15:09;;;;;;;28.63;3.25;;;14.90;99.90;;;;;;4996226;28;20068;-73
2022/07/02 07:17:37;;;;;;;18.70;3.92;;;15.00;99.90;;;;;;5009773;28;20068;-72
2022/07/02 07:20:05;;;;;;;20.52;3.42;;;15.00;99.90;;;;;;5012835;28;20120;-70
2022/07/02 07:22:33;;;;;;;28.23;3.47;;;14.90;99.90;;;;;;5011682;28;20041;-69
2022/07/02 07:25:00;;;;;;;27.80;3.38;;;14.90;99.90;;;;;;4997080;28;20030;-71
2022/07/02 07:27:27;;;;;;;31.08;4.13;;;14.80;99.90;;;;;;4997987;28;20054;-72
2022/07/02 07:29:54;;;;;;;28.75;3.58;;;14.90;99.90;;;;;;5004431;28;20019;-70
2022/07/02 07:32:22;;;;;;;29.58;3.63;;;14.90;99.90;;;;;;5011285;28;20037;-70
2022/07/02 07:34:49;;;;;;;29.60;4.68;;;14.90;99.90;;;;;;5014292;28;20029;-71
2022/07/02 07:37:16;;;;;;;18.25;2.30;;;14.90;99.90;;;;;;5012513;28;20133;-69
2022/07/02 07:39:44;;;;;;;27.63;3.95;;;14.90;99.90;;;;;;4998126;28;20529;-71
2022/07/02 07:42:11;;;;;;;29.85;4.35;;;14.90;99.90;;;;;;5009947;28;20029;-70
2022/07/02 07:44:38;;;;;;;19.35;3.10;;;14.90;99.90;;;;;;5007501;28;20054;-69
2022/07/02 07:47:05;;;;;;;25.50;4.78;;;14.90;99.90;;;;;;5013347;28;20045;-69
2022/07/02 07:49:33;;;;;;;15.57;2.88;;;14.80;99.90;;;;;;5002255;28;20033;-70
2022/07/02 07:52:01;;;;;;;25.00;3.60;;;14.70;99.90;;;;;;5003555;28;20033;-69
2022/07/02 07:54:28;;;;;;;20.25;2.65;;;14.70;99.90;;;;;;5002500;28;20022;-69
2022/07/02 07:56:55;;;;;;;17.55;3.15;;;14.50;99.90;;;;;;5014728;28;20058;-70
2022/07/02 07:59:23;;;;;;;21.90;4.18;;;14.50;99.90;;;;;;5006474;28;20132;-69
2022/07/02 08:01:50;;;;;;;22.15;3.33;;;14.50;99.90;;;;;;5017559;28;20084;-69
2022/07/02 08:04:17;;;;;;;22.92;3.30;;;14.50;99.90;;;;;;5014791;28;20030;-70
2022/07/02 08:06:44;;;;;;;18.23;3.33;;;14.50;99.90;;;;;;5011463;28;20025;-68
2022/07/02 08:09:12;;;;;;;16.20;3.00;;;14.50;99.90;;;;;;5018544;28;20072;-67
2022/07/02 08:11:39;;;;;;;16.48;2.97;;;14.50;99.90;;;;;;5029946;28;20026;-68
2022/07/02 08:14:06;;;;;;;14.88;3.50;;;14.60;99.90;;;;;;5025314;28;20467;-68
2022/07/02 08:16:34;;;;;;;17.90;3.50;;;14.50;99.90;;;;;;5022723;28;20117;-68
2022/07/02 08:19:01;;;;;;;18.75;2.25;;;14.60;99.90;;;;;;5019287;28;20034;-69
2022/07/02 08:21:29;;;;;;;21.17;3.50;;;14.50;99.90;;;;;;5013921;28;20018;-69
2022/07/02 08:23:56;;;;;;;30.10;4.82;;;14.50;99.90;;;;;;5003408;28;20105;-69
2022/07/02 08:26:23;;;;;;;21.77;2.97;;;14.50;99.90;;;;;;5016247;28;20057;-68
2022/07/02 08:28:50;;;;;;;16.42;2.53;;;14.50;99.90;;;;;;5013014;28;20018;-69
2022/07/02 08:31:18;;;;;;;17.77;3.13;;;14.60;99.90;;;;;;5009089;28;20023;-68
2022/07/02 08:33:45;;;;;;;19.15;2.83;;;14.60;99.90;;;;;;5009608;28;20041;-68
2022/07/02 08:36:12;;;;;;;29.45;4.70;;;14.60;99.90;;;;;;5019480;28;20018;-69
2022/07/02 08:38:39;;;;;;;18.77;3.40;;;14.60;99.90;;;;;;5022963;28;20034;-69
2022/07/02 08:41:09;;;;;;;23.50;3.78;;;14.60;99.90;;;;;;5026058;28;20030;-68
2022/07/02 08:43:36;;;;;;;26.65;3.60;;;14.60;99.90;;;;;;5006051;28;20034;-68
2022/07/02 08:46:06;;;;;;;22.63;4.80;;;14.60;99.90;;;;;;5009114;28;20409;-69
2022/07/02 08:48:36;;;;;;;23.10;3.17;;;14.50;99.90;;;;;;5016343;28;20053;-69
2022/07/02 08:51:03;;;;;;;20.48;3.28;;;14.50;99.90;;;;;;5014960;28;20126;-69
2022/07/02 08:53:31;;;;;;;22.67;5.60;;;14.50;99.90;;;;;;5018358;28;20097;-69
2022/07/02 08:55:59;;;;;;;16.83;4.30;;;14.50;99.90;;;;;;5019089;28;20044;-68
2022/07/02 08:58:27;;;;;;;26.63;4.35;;;14.50;99.90;;;;;;5014944;28;20041;-69
2022/07/02 09:00:54;;;;;;;17.63;3.85;;;14.50;99.90;;;;;;5020980;28;20026;-68
2022/07/02 09:03:22;;;;;;;20.95;3.50;;;14.50;99.90;;;;;;5013605;28;20031;-68
2022/07/02 09:05:51;;;;;;;28.77;3.45;;;14.50;99.90;;;;;;5029221;28;20026;-68
2022/07/02 09:08:22;;;;;;;31.23;3.90;;;14.50;99.90;;;;;;5027882;28;20030;-69
2022/07/02 09:10:52;;;;;;;13.93;3.80;;;14.50;99.90;;;;;;5010012;28;20030;-69
2022/07/02 09:13:20;;;;;;;17.65;4.80;;;14.50;99.90;;;;;;5013068;28;20018;-69
2022/07/02 09:15:47;;;;;;;21.25;4.65;;;14.50;99.90;;;;;;5017048;28;20109;-69
2022/07/02 09:18:15;;;;;;;22.63;4.20;;;14.50;99.90;;;;;;5015697;28;20040;-68
2022/07/02 09:20:42;;;;;;;24.35;5.13;;;14.50;99.90;;;;;;5017498;28;20029;-69
2022/07/02 09:23:19;;;;;;;15.73;3.50;;;14.50;99.90;;;;;;5014404;28;20021;-69
2022/07/02 09:25:48;;;;;;;19.25;3.45;;;14.50;99.90;;;;;;5018293;28;20029;-69
2022/07/02 09:28:17;;;;;;;24.33;3.05;;;14.50;99.90;;;;;;5017763;28;20029;-69
2022/07/02 09:30:45;;;;;;;19.65;3.50;;;14.50;99.90;;;;;;5019504;28;20061;-69
2022/07/02 09:33:35;;;;;;;23.65;3.05;;;14.50;99.90;;;;;;5018024;28;20060;-68
2022/07/02 09:36:11;;;;;;;19.05;2.60;;;14.50;99.90;;;;;;5026433;28;20024;-68
2022/07/02 09:38:46;;;;;;;24.85;3.03;;;14.50;99.90;;;;;;5013953;28;20034;-69
2022/07/02 09:41:18;;;;;;;28.35;4.72;;;14.50;99.90;;;;;;5018279;28;20028;-69
2022/07/02 09:43:46;;;;;;;13.70;2.50;;;14.50;99.90;;;;;;5019942;28;20093;-68
2022/07/02 09:46:18;;;;;;;29.40;4.07;;;14.50;99.90;;;;;;5015701;28;20041;-68
2022/07/02 09:48:47;;;;;;;24.90;3.65;;;14.50;99.90;;;;;;5013878;28;20030;-68
2022/07/02 09:51:15;;;;;;;17.08;2.97;;;14.50;99.90;;;;;;5015063;28;20157;-68
2022/07/02 09:53:54;;;;;;;26.25;4.75;;;14.50;99.90;;;;;;5016255;28;20048;-68
2022/07/02 09:56:23;;;;;;;32.78;3.92;;;14.50;99.90;;;;;;5021687;28;20010;-68
2022/07/02 09:58:51;;;;;;;28.00;4.47;;;14.50;99.90;;;;;;5019571;28;20089;-68
2022/07/02 10:01:22;;;;;;;20.63;3.72;;;14.50;99.90;;;;;;5017758;28;20026;-68
2022/07/02 10:03:56;;;;;;;21.27;2.92;;;14.40;99.90;;;;;;5016365;28;20038;-68
2022/07/02 10:06:23;;;;;;;16.93;2.27;;;14.40;99.90;;;;;;5015762;28;20058;-67
2022/07/02 10:08:52;;;;;;;16.58;3.25;;;14.40;99.90;;;;;;5017108;28;20068;-68
2022/07/02 10:11:20;;;;;;;16.40;2.92;;;14.40;99.90;;;;;;5017679;28;20018;-68
2022/07/02 10:13:49;;;;;;;21.23;3.45;;;14.40;99.90;;;;;;5021457;28;20022;-68
2022/07/02 10:16:17;;;;;;;21.58;2.83;;;14.50;99.90;;;;;;5021532;28;20018;-69
2022/07/02 10:18:46;;;;;;;14.55;4.28;;;14.50;99.90;;;;;;5023941;28;20033;-69
2022/07/02 10:21:15;;;;;;;22.30;3.10;;;14.60;99.90;;;;;;5018044;28;20097;-68
2022/07/02 10:23:47;;;;;;;17.48;3.58;;;14.70;99.90;;;;;;5018466;28;20018;-68
2022/07/02 10:26:15;;;;;;;28.13;4.75;;;14.70;99.90;;;;;;5021760;28;20028;-69
2022/07/02 10:28:42;;;;;;;28.13;4.55;;;14.70;99.90;;;;;;5018102;28;20049;-68
2022/07/02 10:31:20;;;;;;;42.15;5.50;;;14.70;99.90;;;;;;5015493;28;20061;-68
2022/07/02 10:33:54;;;;;;;30.90;5.10;;;14.90;99.90;;;;;;5019234;28;20085;-68
2022/07/02 10:36:23;;;;;;;32.50;4.65;;;14.90;99.90;;;;;;5025501;28;20086;-68
2022/07/02 10:38:58;;;;;;;35.72;5.82;;;14.90;99.90;;;;;;5029162;28;20060;-69
2022/07/02 10:41:27;;;;;;;28.77;4.40;;;14.90;99.90;;;;;;5040302;28;20117;-69
2022/07/02 10:43:56;;;;;;;34.20;3.90;;;14.90;99.90;;;;;;5027323;28;20030;-69
2022/07/02 10:46:33;;;;;;;15.85;3.03;;;14.90;99.90;;;;;;5027149;28;20046;-69
2022/07/02 10:49:01;;;;;;;29.50;6.10;;;14.90;99.90;;;;;;5026025;28;20038;-70
2022/07/02 10:51:35;;;;;;;32.88;4.03;;;14.90;99.90;;;;;;5016774;28;20093;-69
2022/07/02 10:54:07;;;;;;;37.88;5.35;;;14.90;99.90;;;;;;5011653;28;20090;-69
2022/07/02 10:56:46;;;;;;;33.88;6.13;;;14.80;99.90;;;;;;5018142;28;20037;-69
2022/07/02 10:59:38;;;;;;;54.10;7.15;;;14.80;99.90;;;;;;5020680;28;20043;-68
2022/07/02 11:02:07;;;;;;;41.85;7.00;;;14.80;99.90;;;;;;5029545;28;20022;-69
2022/07/02 11:04:35;;;;;;;52.00;8.38;;;14.90;99.90;;;;;;5035058;28;20021;-68
2022/07/02 11:07:10;;;;;;;33.35;5.50;;;14.90;99.90;;;;;;5036517;28;20038;-70
2022/07/02 11:09:49;;;;;;;;;;;14.90;99.90;;;;;;5027368;28;20042;-68
2022/07/02 11:12:27;;;;;;;68.47;7.78;;;15.00;99.90;;;;;;5034480;28;19909;-69
2022/07/02 11:14:56;;;;;;;60.20;8.18;;;15.00;99.90;;;;;;5041523;28;20543;-69
2022/07/02 11:17:24;;;;;;;49.05;6.28;;;15.00;99.90;;;;;;5031699;28;20057;-69
2022/07/02 11:19:54;;;;;;;55.38;7.45;;;15.00;99.90;;;;;;5017265;28;20042;-68
2022/07/02 11:22:22;;;;;;;54.28;8.80;;;15.00;99.90;;;;;;5028170;28;20044;-69
2022/07/02 11:24:54;;;;;;;63.20;9.23;;;15.10;99.90;;;;;;5018791;28;20094;-70
2022/07/02 11:27:21;;;;;;;53.10;8.13;;;15.00;99.90;;;;;;5014583;28;20022;-68
2022/07/02 11:29:58;;;;;;;48.80;5.75;;;15.00;99.90;;;;;;5023673;28;20033;-69
2022/07/02 11:32:34;;;;;;;52.17;6.53;;;15.00;99.90;;;;;;5032822;28;20482;-69
2022/07/02 11:35:02;;;;;;;36.63;4.90;;;14.90;99.90;;;;;;5039728;28;20029;-69
2022/07/02 11:37:29;;;;;;;29.27;3.60;;;14.90;99.90;;;;;;5036196;28;20034;-70
2022/07/02 11:39:56;;;;;;;32.38;4.35;;;14.80;99.90;;;;;;5022566;28;20045;-69
2022/07/02 11:42:36;;;;;;;30.25;3.80;;;14.80;99.90;;;;;;5032304;28;20017;-69
2022/07/02 11:45:04;;;;;;;28.33;3.17;;;14.70;99.90;;;;;;5014373;28;20033;-70
2022/07/02 11:47:31;;;;;;;28.17;3.60;;;14.80;99.90;;;;;;5027781;28;20026;-69
2022/07/02 11:49:58;;;;;;;31.08;3.92;;;14.80;99.90;;;;;;5015321;28;20022;-69
2022/07/02 11:52:26;;;;;;;23.88;3.10;;;14.90;99.90;;;;;;5021016;28;20031;-69
2022/07/02 11:54:53;;;;;;;26.13;2.72;;;14.90;99.90;;;;;;5021562;28;20126;-69
2022/07/02 11:57:31;;;;;;;21.58;2.90;;;15.00;99.90;;;;;;5031519;28;20033;-69
2022/07/02 11:59:58;;;;;;;23.42;3.05;;;14.90;99.90;;;;;;5033478;28;20046;-68
2022/07/02 12:02:36;;;;;;;27.70;3.88;;;14.90;99.90;;;;;;5024653;28;20022;-69
2022/07/02 12:05:17;;;;;;;29.98;3.05;;;14.80;99.90;;;;;;5043057;28;20477;-69
2022/07/02 12:07:45;;;;;;;28.73;3.70;;;14.80;99.90;;;;;;5018220;28;20028;-68
2022/07/02 12:10:15;;;;;;;25.45;4.13;;;14.70;99.90;;;;;;5032576;28;20526;-68
2022/07/02 12:12:42;;;;;;;19.25;3.30;;;14.70;99.90;;;;;;5029881;28;20089;-67
2022/07/02 12:15:11;;;;;;;22.45;2.70;;;14.70;99.90;;;;;;5022812;28;20026;-68
2022/07/02 12:17:48;;;;;;;20.30;2.53;;;14.70;99.90;;;;;;5031313;28;20037;-66
2022/07/02 12:20:20;;;;;;;30.23;3.63;;;14.80;99.90;;;;;;5019766;28;20042;-67
2022/07/02 12:22:54;;;;;;;28.48;4.05;;;14.70;99.90;;;;;;5028758;28;20084;-67
2022/07/02 12:25:21;;;;;;;21.40;2.80;;;14.70;99.90;;;;;;5020183;28;20109;-67
2022/07/02 12:27:55;;;;;;;24.48;3.72;;;14.70;99.90;;;;;;5029278;28;20034;-67
2022/07/02 12:30:23;;;;;;;26.25;3.35;;;14.80;99.90;;;;;;5027392;28;20038;-66
2022/07/02 12:32:54;;;;;;;28.50;4.68;;;14.70;99.90;;;;;;5028472;28;20054;-67
2022/07/02 12:35:21;;;;;;;35.05;4.13;;;14.60;99.90;;;;;;5023195;28;20026;-67
2022/07/02 12:37:52;;;;;;;25.50;3.72;;;14.60;99.90;;;;;;5018913;28;20028;-67
2022/07/02 12:40:23;;;;;;;25.52;3.65;;;14.50;99.90;;;;;;5011675;28;20033;-68
2022/07/02 12:42:59;;;;;;;19.77;3.72;;;14.50;99.90;;;;;;5006748;28;20069;-67
2022/07/02 12:45:33;;;;;;;20.98;1.77;;;14.40;99.90;;;;;;5015301;28;20096;-68
2022/07/02 12:48:19;;;;;;;14.23;1.88;;;14.30;99.90;;;;;;5011681;28;20079;-69
2022/07/02 12:50:48;;;;;;;16.90;1.63;;;14.30;99.90;;;;;;5021150;28;20694;-68
2022/07/02 12:53:17;;;;;;;13.77;2.08;;;14.30;99.90;;;;;;5016582;28;20045;-68
2022/07/02 12:55:52;;;;;;;15.68;1.67;;;14.30;99.90;;;;;;5016645;28;20032;-69